Time;durP1;ratioP1;P1;durP2;ratioP2;P2;SDS_P1;SDS_P2;PMS_P1;PMS_P2;Temp;Humidity;BMP_temperature;BMP_pressure;BME280_temperature;BME280_humidity;BME280_pressure;Samples;Min_cycle;Max_cycle;Signal;HPM_P1;HPM_P2
2022/08/05 00:02:23;;;;;;;7.70;7.00;;;24.70;77.50;;;;;;5058115;28;20189;-52
2022/08/05 00:04:49;;;;;;;7.23;6.53;;;24.70;78.30;;;;;;5058032;28;20628;-51
2022/08/05 00:07:15;;;;;;;7.53;6.73;;;24.70;79.10;;;;;;5057963;28;20181;-53
2022/08/05 00:09:40;;;;;;;8.10;7.40;;;24.60;79.20;;;;;;5057086;28;20222;-53
2022/08/05 00:12:06;;;;;;;7.70;7.03;;;24.60;78.90;;;;;;5057848;28;20173;-51
2022/08/05 00:14:32;;;;;;;7.60;6.97;;;24.60;79.00;;;;;;5057869;28;20189;-53
2022/08/05 00:16:58;;;;;;;7.90;7.20;;;24.50;79.90;;;;;;5057537;28;20409;-50
2022/08/05 00:19:24;;;;;;;8.60;7.70;;;24.50;80.20;;;;;;5056650;28;20179;-50
2022/08/05 00:21:49;;;;;;;7.07;6.47;;;24.50;80.70;;;;;;5057000;28;20267;-54
2022/08/05 00:24:15;;;;;;;8.10;7.40;;;24.50;81.60;;;;;;5056090;28;20467;-50
2022/08/05 00:26:41;;;;;;;7.80;6.80;;;24.50;82.30;;;;;;5056930;28;20173;-49
2022/08/05 00:29:06;;;;;;;7.83;7.03;;;24.40;82.80;;;;;;5055614;28;20312;-51
2022/08/05 00:31:32;;;;;;;7.17;6.60;;;24.40;82.90;;;;;;5057068;28;20205;-50
2022/08/05 00:33:57;;;;;;;6.40;5.90;;;24.40;83.30;;;;;;5055594;28;20449;-49
2022/08/05 00:36:23;;;;;;;7.40;6.80;;;24.30;83.70;;;;;;5053846;28;20718;-51
2022/08/05 00:38:50;;;;;;;8.10;7.40;;;24.30;84.20;;;;;;5055116;28;20209;-52
2022/08/05 00:41:26;;;;;;;7.93;7.23;;;24.30;84.30;;;;;;5055169;28;20174;-52
2022/08/05 00:43:52;;;;;;;7.30;6.73;;;24.30;84.30;;;;;;5055306;28;20443;-49
2022/08/05 00:46:18;;;;;;;6.93;6.33;;;24.30;84.30;;;;;;5056691;28;20807;-49
2022/08/05 00:48:44;;;;;;;7.73;7.00;;;24.30;84.40;;;;;;5055248;28;20177;-50
2022/08/05 00:51:09;;;;;;;7.30;6.70;;;24.20;84.30;;;;;;5056460;28;20289;-51
2022/08/05 00:53:35;;;;;;;6.50;6.07;;;24.20;83.90;;;;;;5058829;28;20170;-50
2022/08/05 00:56:01;;;;;;;6.67;6.07;;;24.20;84.10;;;;;;5060552;28;20276;-51
2022/08/05 00:58:26;;;;;;;6.13;5.63;;;24.20;83.90;;;;;;5060626;28;20620;-50
2022/08/05 01:00:52;;;;;;;6.47;5.97;;;24.10;83.40;;;;;;5060477;28;20175;-49
2022/08/05 01:03:17;;;;;;;6.10;5.50;;;24.20;84.40;;;;;;5061064;28;20246;-54
2022/08/05 01:05:43;;;;;;;6.63;6.03;;;24.20;82.50;;;;;;5061049;28;20269;-51
2022/08/05 01:08:09;;;;;;;6.87;6.30;;;24.20;81.40;;;;;;5060625;28;20203;-51
2022/08/05 01:10:42;;;;;;;6.00;5.50;;;24.10;81.80;;;;;;5061092;28;20202;-50
2022/08/05 01:13:14;;;;;;;6.17;5.57;;;24.10;80.50;;;;;;5060044;28;20170;-51
2022/08/05 01:15:47;;;;;;;6.20;5.70;;;24.10;79.40;;;;;;5061014;28;20768;-52
2022/08/05 01:18:15;;;;;;;5.27;4.87;;;24.10;78.20;;;;;;5060703;28;20422;-51
2022/08/05 01:21:00;;;;;;;6.07;5.67;;;24.10;76.80;;;;;;5060418;28;20432;-52
2022/08/05 01:24:03;;;;;;;5.63;5.13;;;24.10;78.90;;;;;;5061140;28;20423;-51
2022/08/05 01:26:47;;;;;;;5.90;5.30;;;24.20;78.20;;;;;;5061008;28;20409;-51
2022/08/05 01:29:22;;;;;;;6.30;4.67;;;24.20;75.90;;;;;;5043095;28;20471;-50
2022/08/05 01:31:51;;;;;;;5.50;4.60;;;24.20;76.80;;;;;;5059733;28;20750;-53
2022/08/05 01:34:41;;;;;;;5.17;4.40;;;24.10;75.30;;;;;;5059440;28;20420;-47
2022/08/05 01:37:09;;;;;;;5.47;4.77;;;24.20;75.10;;;;;;5059925;28;20405;-50
2022/08/05 01:39:36;;;;;;;5.30;4.80;;;24.20;76.10;;;;;;5061052;28;20447;-48
2022/08/05 01:42:02;;;;;;;4.93;4.50;;;24.20;74.60;;;;;;5058314;28;20420;-49
2022/08/05 01:44:30;;;;;;;5.10;4.60;;;24.20;75.60;;;;;;5059131;28;20718;-50
2022/08/05 01:46:56;;;;;;;5.03;4.43;;;24.20;73.50;;;;;;5059015;28;20563;-49
2022/08/05 01:49:24;;;;;;;5.47;4.90;;;24.20;74.00;;;;;;5059251;28;20699;-49
2022/08/05 01:51:57;;;;;;;5.37;4.17;;;24.20;74.20;;;;;;5060378;28;20503;-50
2022/08/05 01:54:25;;;;;;;4.90;4.50;;;24.20;74.80;;;;;;5059421;28;20435;-56
2022/08/05 01:57:04;;;;;;;5.03;4.20;;;24.20;74.00;;;;;;5059500;28;20420;-50
2022/08/05 01:59:31;;;;;;;7.03;4.63;;;24.20;74.30;;;;;;5059197;28;20439;-49
2022/08/05 02:01:57;;;;;;;4.90;4.37;;;24.20;74.40;;;;;;5058805;28;20408;-53
2022/08/05 02:04:25;;;;;;;4.60;3.80;;;24.20;74.90;;;;;;5058826;28;20443;-52
2022/08/05 02:06:51;;;;;;;6.10;4.43;;;24.20;75.20;;;;;;5042754;28;20457;-52
2022/08/05 02:09:17;;;;;;;5.20;4.70;;;24.10;76.40;;;;;;5059021;28;20838;-47
2022/08/05 02:12:01;;;;;;;4.60;4.20;;;24.10;75.90;;;;;;5060347;28;20496;-50
2022/08/05 02:14:30;;;;;;;5.83;4.03;;;24.10;75.60;;;;;;5058919;28;20209;-50
2022/08/05 02:17:01;;;;;;;7.77;4.80;;;24.10;76.40;;;;;;5058848;28;20416;-50
2022/08/05 02:19:27;;;;;;;8.43;4.40;;;24.20;77.30;;;;;;5059731;28;20420;-47
2022/08/05 02:22:18;;;;;;;4.90;4.13;;;24.20;76.50;;;;;;5059448;28;20695;-50
2022/08/05 02:24:49;;;;;;;5.20;4.70;;;24.10;76.50;;;;;;5059869;28;20591;-52
2022/08/05 02:27:15;;;;;;;7.60;4.60;;;24.10;77.10;;;;;;5059085;28;20432;-52
2022/08/05 02:29:52;;;;;;;8.90;4.33;;;24.00;77.30;;;;;;5059934;28;20480;-48
2022/08/05 02:32:19;;;;;;;4.83;4.40;;;24.00;77.80;;;;;;5059515;28;20416;-50
2022/08/05 02:34:45;;;;;;;5.60;4.70;;;24.00;78.10;;;;;;5041986;28;20449;-51
2022/08/05 02:37:12;;;;;;;4.70;4.30;;;24.00;78.50;;;;;;5059782;28;20444;-50
2022/08/05 02:39:38;;;;;;;8.27;4.57;;;24.00;78.80;;;;;;5058439;28;20259;-49
2022/08/05 02:42:05;;;;;;;4.90;4.50;;;24.00;78.70;;;;;;5059091;28;20427;-49
2022/08/05 02:44:35;;;;;;;6.03;4.20;;;24.00;78.90;;;;;;5059345;28;20439;-52
2022/08/05 02:47:02;;;;;;;5.90;4.73;;;24.00;79.00;;;;;;5058177;28;20478;-50
2022/08/05 02:49:34;;;;;;;5.47;4.67;;;24.00;79.00;;;;;;5057985;28;20644;-50
2022/08/05 02:52:01;;;;;;;5.37;4.53;;;24.00;79.20;;;;;;5058635;28;20424;-47
2022/08/05 02:54:27;;;;;;;4.77;4.37;;;24.00;78.90;;;;;;5059177;28;20463;-51
2022/08/05 02:56:53;;;;;;;6.60;4.90;;;24.00;79.10;;;;;;5058804;28;20409;-53
2022/08/05 02:59:19;;;;;;;6.53;4.70;;;24.00;79.30;;;;;;5058841;28;20186;-51
2022/08/05 03:01:50;;;;;;;4.80;4.40;;;24.10;79.10;;;;;;5058928;28;20423;-47
2022/08/05 03:04:16;;;;;;;5.40;3.90;;;24.10;79.10;;;;;;5058329;28;20427;-49
2022/08/05 03:06:42;;;;;;;5.57;4.67;;;24.10;79.20;;;;;;5057069;28;20411;-49
2022/08/05 03:09:11;;;;;;;5.87;5.10;;;24.10;79.60;;;;;;5056912;28;20182;-48
2022/08/05 03:11:42;;;;;;;6.03;5.53;;;24.10;79.80;;;;;;5058447;28;20416;-49
2022/08/05 03:14:07;;;;;;;6.00;4.57;;;24.10;79.90;;;;;;5057352;28;20417;-49
2022/08/05 03:16:33;;;;;;;5.87;4.67;;;24.10;79.80;;;;;;5057395;28;20423;-48
2022/08/05 03:19:02;;;;;;;5.83;5.00;;;24.10;80.00;;;;;;5058069;28;20244;-49
2022/08/05 03:21:28;;;;;;;7.30;4.97;;;24.10;80.30;;;;;;5058836;28;20178;-48
2022/08/05 03:23:54;;;;;;;5.80;5.23;;;24.10;80.50;;;;;;5058825;28;20428;-49
2022/08/05 03:26:19;;;;;;;6.10;4.50;;;24.00;80.50;;;;;;5058054;28;20662;-50
2022/08/05 03:28:45;;;;;;;5.90;5.03;;;24.00;80.70;;;;;;5056979;28;20523;-49
2022/08/05 03:31:11;;;;;;;5.37;4.07;;;24.00;80.70;;;;;;5057876;28;20221;-47
2022/08/05 03:33:37;;;;;;;5.63;4.80;;;24.00;80.90;;;;;;5057741;28;20196;-46
2022/08/05 03:36:04;;;;;;;5.70;5.10;;;24.00;81.10;;;;;;5058106;28;20435;-50
2022/08/05 03:38:30;;;;;;;6.43;5.30;;;24.00;81.40;;;;;;5057519;28;20705;-48
2022/08/05 03:40:56;;;;;;;4.93;4.33;;;24.00;81.00;;;;;;5057792;28;20584;-48
2022/08/05 03:43:24;;;;;;;6.90;4.80;;;23.90;81.00;;;;;;5057555;28;20559;-50
2022/08/05 03:45:51;;;;;;;5.40;4.90;;;23.90;81.00;;;;;;5057528;28;20209;-48
2022/08/05 03:48:18;;;;;;;5.17;4.77;;;23.80;81.20;;;;;;5057051;28;20513;-53
2022/08/05 03:51:12;;;;;;;6.50;5.40;;;23.80;81.50;;;;;;5057588;28;20475;-46
2022/08/05 03:53:43;;;;;;;5.80;5.30;;;23.80;82.00;;;;;;5057631;28;20424;-51
2022/08/05 03:56:10;;;;;;;9.43;5.50;;;23.80;82.50;;;;;;5056896;28;20429;-49
2022/08/05 03:58:37;;;;;;;6.77;5.20;;;23.80;82.80;;;;;;5039692;28;20441;-48
2022/08/05 04:01:05;;;;;;;6.70;5.03;;;23.70;82.90;;;;;;5056246;28;20457;-46
2022/08/05 04:03:34;;;;;;;6.07;4.97;;;23.70;83.30;;;;;;5055527;28;20470;-49
2022/08/05 04:06:01;;;;;;;5.67;5.17;;;23.70;83.30;;;;;;5056367;28;20436;-52
2022/08/05 04:08:29;;;;;;;5.63;4.97;;;23.70;83.50;;;;;;5039103;28;20424;-48
2022/08/05 04:10:56;;;;;;;5.40;4.90;;;23.70;83.70;;;;;;5056733;28;20504;-49
2022/08/05 04:13:22;;;;;;;6.03;4.80;;;23.70;83.90;;;;;;5068933;28;20549;-49
2022/08/05 04:15:48;;;;;;;6.80;5.50;;;23.60;84.00;;;;;;5075674;28;20438;-47
2022/08/05 04:18:14;;;;;;;5.80;5.30;;;23.60;84.30;;;;;;5076178;28;20418;-48
2022/08/05 04:20:40;;;;;;;5.40;4.90;;;23.60;84.50;;;;;;5075781;28;20441;-48
2022/08/05 04:23:06;;;;;;;5.87;4.90;;;23.60;84.70;;;;;;5075400;28;20196;-50
2022/08/05 04:25:31;;;;;;;6.17;5.33;;;23.60;84.90;;;;;;5074750;28;20243;-52
2022/08/05 04:27:57;;;;;;;6.50;5.90;;;23.60;85.10;;;;;;5075872;28;20466;-48
2022/08/05 04:30:23;;;;;;;6.17;5.47;;;23.60;85.20;;;;;;5075666;28;20231;-51
2022/08/05 04:32:48;;;;;;;8.10;5.40;;;23.60;85.20;;;;;;5075893;28;20170;-53
2022/08/05 04:35:14;;;;;;;5.60;5.10;;;23.60;85.20;;;;;;5075715;28;20538;-55
2022/08/05 04:37:39;;;;;;;5.73;4.33;;;23.60;85.10;;;;;;5075153;28;20169;-54
2022/08/05 04:40:08;;;;;;;5.63;4.80;;;23.70;85.00;;;;;;5076109;28;20200;-54
2022/08/05 04:42:34;;;;;;;6.47;5.07;;;23.70;84.80;;;;;;5075955;28;20563;-54
2022/08/05 04:44:59;;;;;;;5.63;5.13;;;23.80;84.80;;;;;;5076667;28;20439;-52
2022/08/05 04:47:25;;;;;;;5.13;4.70;;;23.80;84.70;;;;;;5076741;28;20278;-51
2022/08/05 04:49:51;;;;;;;5.30;4.80;;;23.80;84.50;;;;;;5076560;28;20209;-52
2022/08/05 04:52:17;;;;;;;5.00;4.60;;;23.80;84.40;;;;;;5075707;28;20473;-56
2022/08/05 04:54:42;;;;;;;6.80;4.33;;;23.90;84.50;;;;;;5076143;28;20267;-55
2022/08/05 04:57:08;;;;;;;5.83;5.20;;;23.90;84.20;;;;;;5075298;28;20172;-55
2022/08/05 04:59:33;;;;;;;5.30;4.70;;;23.90;83.00;;;;;;5075491;28;20180;-54
2022/08/05 05:01:59;;;;;;;5.60;4.73;;;23.90;83.20;;;;;;5076042;28;20189;-53
2022/08/05 05:04:25;;;;;;;6.00;4.60;;;23.90;82.80;;;;;;5076035;28;20178;-53
2022/08/05 05:06:50;;;;;;;5.30;4.90;;;23.90;81.80;;;;;;5074968;28;20287;-54
2022/08/05 05:09:16;;;;;;;5.30;4.90;;;24.00;81.90;;;;;;5074957;28;20231;-52
2022/08/05 05:11:41;;;;;;;5.17;4.67;;;24.10;81.80;;;;;;5074310;28;20192;-55
2022/08/05 05:14:07;;;;;;;5.50;5.00;;;24.20;81.50;;;;;;5074234;28;20434;-54
2022/08/05 05:16:32;;;;;;;8.03;5.60;;;24.20;80.40;;;;;;5074199;28;20252;-53
2022/08/05 05:18:58;;;;;;;4.90;4.50;;;24.30;80.50;;;;;;5075141;28;20207;-51
2022/08/05 05:21:24;;;;;;;6.70;5.47;;;24.40;80.30;;;;;;5076516;28;20185;-52
2022/08/05 05:23:49;;;;;;;6.37;5.30;;;24.50;80.10;;;;;;5074753;28;20597;-50
2022/08/05 05:26:15;;;;;;;7.10;5.70;;;24.60;79.90;;;;;;5073708;28;20183;-52
2022/08/05 05:28:41;;;;;;;7.40;5.67;;;24.60;80.40;;;;;;5074489;28;20210;-53
2022/08/05 05:31:06;;;;;;;7.13;6.40;;;24.70;79.70;;;;;;5074453;28;20226;-54
2022/08/05 05:33:32;;;;;;;6.73;6.10;;;24.70;79.70;;;;;;5075104;28;20178;-52
2022/08/05 05:35:57;;;;;;;6.93;6.23;;;24.70;79.80;;;;;;5070442;28;20216;-53
2022/08/05 05:38:23;;;;;;;6.40;5.80;;;24.60;79.80;;;;;;5077721;28;20170;-52
2022/08/05 05:40:48;;;;;;;7.43;6.63;;;24.70;80.10;;;;;;5078991;28;20328;-54
2022/08/05 05:43:14;;;;;;;6.20;5.53;;;24.70;80.10;;;;;;5078498;28;20220;-54
2022/08/05 05:45:40;;;;;;;6.87;6.20;;;24.70;80.10;;;;;;5079401;28;20556;-51
2022/08/05 05:48:06;;;;;;;7.00;6.30;;;24.70;80.50;;;;;;5079642;28;20423;-55
2022/08/05 05:50:32;;;;;;;9.80;6.77;;;24.80;80.90;;;;;;5079195;28;20213;-51
2022/08/05 05:52:58;;;;;;;8.40;6.00;;;24.80;81.40;;;;;;5079142;28;20167;-54
2022/08/05 05:55:23;;;;;;;7.03;6.40;;;24.70;81.70;;;;;;5079007;28;20489;-55
2022/08/05 05:57:49;;;;;;;6.90;6.20;;;24.70;82.20;;;;;;5079702;28;20184;-49
2022/08/05 06:00:17;;;;;;;7.00;6.20;;;24.70;82.20;;;;;;5078714;28;20192;-50
2022/08/05 06:02:45;;;;;;;6.63;6.03;;;24.80;82.50;;;;;;5079941;28;20226;-55
2022/08/05 06:05:13;;;;;;;9.20;6.30;;;24.80;82.70;;;;;;5079447;28;20434;-53
2022/08/05 06:07:39;;;;;;;12.90;6.07;;;24.80;83.10;;;;;;5079815;28;20407;-54
2022/08/05 06:10:05;;;;;;;7.67;6.70;;;24.90;83.30;;;;;;5076797;28;20475;-55
2022/08/05 06:12:32;;;;;;;9.23;7.77;;;24.90;83.50;;;;;;5076823;28;20257;-54
2022/08/05 06:14:59;;;;;;;9.20;7.73;;;24.90;83.60;;;;;;5076059;28;20420;-51
2022/08/05 06:17:25;;;;;;;9.13;8.07;;;24.90;84.20;;;;;;5076896;28;20502;-52
2022/08/05 06:19:51;;;;;;;8.07;7.33;;;24.90;84.30;;;;;;5075965;28;20928;-52
2022/08/05 06:22:23;;;;;;;6.67;6.17;;;24.80;84.50;;;;;;5074806;28;20185;-53
2022/08/05 06:24:49;;;;;;;8.00;7.00;;;24.70;84.20;;;;;;5073670;28;20178;-51
2022/08/05 06:27:14;;;;;;;7.67;6.70;;;24.70;84.30;;;;;;5075144;28;20483;-52
2022/08/05 06:29:40;;;;;;;9.90;6.27;;;24.90;84.50;;;;;;5075422;28;20563;-52
2022/08/05 06:32:06;;;;;;;7.57;6.77;;;25.00;83.70;;;;;;5076830;28;20180;-54
2022/08/05 06:34:31;;;;;;;6.57;5.97;;;25.20;83.00;;;;;;5076036;28;20482;-53
2022/08/05 06:36:57;;;;;;;7.93;7.10;;;25.40;82.30;;;;;;5077964;28;20173;-54
2022/08/05 06:39:22;;;;;;;6.47;5.90;;;25.50;81.20;;;;;;5078882;28;20189;-54
2022/08/05 06:41:48;;;;;;;7.87;6.30;;;25.70;80.50;;;;;;5079159;28;20173;-52
2022/08/05 06:44:14;;;;;;;6.77;6.10;;;25.80;79.20;;;;;;5078349;28;20200;-54
2022/08/05 06:46:39;;;;;;;6.37;5.87;;;25.90;79.30;;;;;;5078052;28;20165;-55
2022/08/05 06:49:05;;;;;;;9.40;6.10;;;26.00;78.90;;;;;;5077933;28;20448;-50
2022/08/05 06:51:31;;;;;;;6.07;5.57;;;26.10;78.40;;;;;;5077438;28;20212;-52
2022/08/05 06:53:59;;;;;;;6.40;5.53;;;26.20;77.80;;;;;;5078193;28;20172;-55
2022/08/05 06:56:25;;;;;;;6.23;5.63;;;26.40;76.80;;;;;;5077160;28;20171;-54
2022/08/05 06:58:51;;;;;;;5.60;5.10;;;26.40;75.80;;;;;;5076261;28;20415;-56
2022/08/05 07:01:16;;;;;;;5.67;5.17;;;26.50;75.20;;;;;;5076513;28;20748;-55
2022/08/05 07:03:42;;;;;;;4.73;4.30;;;26.70;74.10;;;;;;5075903;28;20559;-55
2022/08/05 07:06:07;;;;;;;4.77;4.33;;;26.70;72.60;;;;;;5075604;28;20178;-54
2022/08/05 07:08:33;;;;;;;6.70;4.63;;;26.90;70.80;;;;;;5074631;28;20181;-55
2022/08/05 07:10:59;;;;;;;7.40;4.37;;;26.90;69.30;;;;;;5078488;28;20529;-54
2022/08/05 07:18:53;;;;;;;7.80;4.60;;;27.20;66.70;;;;;;5076658;28;20414;-56
2022/08/05 07:21:18;;;;;;;4.17;3.87;;;27.30;66.60;;;;;;5074045;28;20698;-56
2022/08/05 07:23:44;;;;;;;9.77;5.00;;;27.40;65.50;;;;;;5073741;28;20173;-56
2022/08/05 07:26:10;;;;;;;6.00;3.50;;;27.50;64.40;;;;;;5075020;28;20202;-54
2022/08/05 07:28:35;;;;;;;4.23;3.40;;;27.50;62.90;;;;;;5073585;28;20451;-56
2022/08/05 07:31:01;;;;;;;5.40;3.37;;;27.60;62.90;;;;;;5073374;28;20639;-53
2022/08/05 07:33:26;;;;;;;3.20;2.90;;;27.70;62.40;;;;;;5075004;28;20512;-57
2022/08/05 07:35:52;;;;;;;3.40;3.10;;;27.90;60.90;;;;;;5074833;28;20186;-56
2022/08/05 07:38:18;;;;;;;3.87;3.50;;;28.00;59.70;;;;;;5074589;28;20177;-54
2022/08/05 07:40:44;;;;;;;3.03;2.83;;;28.20;59.10;;;;;;5074280;28;20183;-55
2022/08/05 07:43:10;;;;;;;3.90;3.30;;;28.30;58.10;;;;;;5074875;28;20428;-55
2022/08/05 07:45:36;;;;;;;3.13;2.90;;;28.40;56.50;;;;;;5057711;28;20439;-55
2022/08/05 07:48:02;;;;;;;2.60;2.40;;;28.40;55.60;;;;;;5075469;28;20510;-56
2022/08/05 07:50:28;;;;;;;3.03;2.83;;;28.50;55.70;;;;;;5074788;28;20232;-55
2022/08/05 07:52:55;;;;;;;3.17;2.87;;;28.60;55.60;;;;;;5074446;28;20416;-58
2022/08/05 07:55:20;;;;;;;3.10;2.80;;;28.70;55.50;;;;;;5073552;28;20184;-54
2022/08/05 07:57:46;;;;;;;6.13;3.77;;;29.00;54.70;;;;;;5074957;28;20420;-57
2022/08/05 08:00:13;;;;;;;3.50;3.20;;;29.00;53.90;;;;;;5074167;28;20217;-53
2022/08/05 08:02:39;;;;;;;3.27;2.77;;;29.10;53.50;;;;;;5073718;28;20186;-52
2022/08/05 08:05:05;;;;;;;3.90;2.60;;;29.20;53.70;;;;;;5073469;28;20756;-57
2022/08/05 08:07:31;;;;;;;2.63;2.43;;;29.20;53.00;;;;;;5074704;28;20445;-54
2022/08/05 08:09:57;;;;;;;3.33;3.03;;;29.20;53.10;;;;;;5074782;28;20540;-41
2022/08/05 08:12:23;;;;;;;3.17;2.87;;;29.40;53.20;;;;;;5075712;28;20414;-42
2022/08/05 08:14:49;;;;;;;3.20;3.00;;;29.50;53.10;;;;;;5074314;28;20181;-41
2022/08/05 08:17:15;;;;;;;4.07;3.13;;;29.70;52.80;;;;;;5073998;28;20409;-41
2022/08/05 08:19:41;;;;;;;5.37;3.47;;;29.90;52.80;;;;;;5074223;28;20189;-41
2022/08/05 08:22:07;;;;;;;4.80;3.27;;;30.20;52.30;;;;;;5075212;28;20394;-41
2022/08/05 08:24:33;;;;;;;3.40;3.10;;;30.30;51.90;;;;;;5074048;28;20825;-41
2022/08/05 08:26:59;;;;;;;3.63;3.33;;;30.60;51.30;;;;;;5072699;28;20423;-42
2022/08/05 08:29:25;;;;;;;3.40;3.10;;;30.80;50.80;;;;;;5071906;28;20575;-41
2022/08/05 08:31:51;;;;;;;3.57;3.20;;;31.00;50.40;;;;;;5074631;28;20479;-40
2022/08/05 08:34:21;;;;;;;3.60;3.30;;;31.00;50.20;;;;;;5071891;28;20208;-40
2022/08/05 08:36:46;;;;;;;3.33;3.07;;;31.30;49.60;;;;;;5072248;28;20408;-42
2022/08/05 08:39:12;;;;;;;4.10;3.10;;;31.50;49.00;;;;;;5074097;28;20708;-41
2022/08/05 08:41:40;;;;;;;2.80;2.60;;;31.70;49.60;;;;;;5073484;28;20271;-43
2022/08/05 08:44:11;;;;;;;3.50;2.80;;;31.80;48.20;;;;;;5072473;28;20445;-42
2022/08/05 08:46:36;;;;;;;3.47;3.17;;;31.80;47.80;;;;;;5073665;28;20792;-41
2022/08/05 08:49:03;;;;;;;3.63;3.33;;;31.90;47.90;;;;;;5072296;28;20464;-43
2022/08/05 08:51:32;;;;;;;3.40;3.10;;;32.00;47.30;;;;;;5073590;28;20714;-42
2022/08/05 08:53:58;;;;;;;4.30;2.70;;;32.10;46.70;;;;;;5072835;28;20409;-41
2022/08/05 08:56:23;;;;;;;3.30;3.10;;;32.30;46.20;;;;;;5071114;28;20408;-41
2022/08/05 08:58:49;;;;;;;3.30;3.10;;;32.30;46.00;;;;;;5073495;28;20394;-40
2022/08/05 09:01:16;;;;;;;3.53;3.23;;;32.30;45.90;;;;;;5072716;28;20179;-41
2022/08/05 09:03:47;;;;;;;3.67;3.27;;;32.50;46.40;;;;;;5071566;28;20202;-41
2022/08/05 09:06:13;;;;;;;3.57;3.30;;;32.60;45.70;;;;;;5071841;28;20888;-41
2022/08/05 09:08:38;;;;;;;3.53;3.23;;;32.70;45.00;;;;;;5072461;28;20496;-40
2022/08/05 09:11:05;;;;;;;2.73;2.53;;;32.60;45.40;;;;;;5071137;28;20212;-41
2022/08/05 09:13:31;;;;;;;3.50;3.20;;;32.60;45.10;;;;;;5072803;28;20263;-43
2022/08/05 09:15:57;;;;;;;3.10;2.90;;;33.00;44.20;;;;;;5076080;28;20434;-42
2022/08/05 09:18:22;;;;;;;3.70;3.40;;;33.30;44.00;;;;;;5076483;28;20389;-42
2022/08/05 09:20:50;;;;;;;2.93;2.67;;;33.70;44.10;;;;;;5076919;28;20186;-44
2022/08/05 09:23:19;;;;;;;3.07;2.77;;;34.00;43.60;;;;;;5076576;28;20575;-41
2022/08/05 09:25:53;;;;;;;2.90;2.70;;;34.20;42.20;;;;;;5074796;28;20405;-43
2022/08/05 09:28:23;;;;;;;3.50;2.93;;;34.30;41.80;;;;;;5072644;28;20501;-42
2022/08/05 09:31:05;;;;;;;3.23;2.67;;;34.60;41.50;;;;;;5074881;28;20913;-42
2022/08/05 09:33:31;;;;;;;2.40;2.20;;;34.80;41.10;;;;;;5075027;28;20484;-44
2022/08/05 09:35:59;;;;;;;2.93;2.70;;;34.80;40.20;;;;;;5075434;28;20428;-42
2022/08/05 09:38:25;;;;;;;3.00;2.77;;;34.70;40.30;;;;;;5077360;28;20420;-42
2022/08/05 09:40:52;;;;;;;3.07;2.57;;;34.80;40.60;;;;;;5059488;28;20441;-42
2022/08/05 09:43:32;;;;;;;2.73;2.53;;;34.90;39.80;;;;;;5078171;28;20452;-45
2022/08/05 09:45:58;;;;;;;3.00;2.70;;;35.20;40.10;;;;;;5078761;28;20447;-43
2022/08/05 09:48:29;;;;;;;2.93;2.73;;;35.50;39.50;;;;;;5077341;28;20396;-42
2022/08/05 09:51:07;;;;;;;3.10;2.80;;;35.80;39.40;;;;;;5077333;28;20613;-43
2022/08/05 09:53:52;;;;;;;2.83;2.63;;;36.30;39.10;;;;;;5077626;28;20404;-42
2022/08/05 09:56:32;;;;;;;3.30;2.43;;;36.60;37.60;;;;;;5078186;28;20429;-43
2022/08/05 09:59:06;;;;;;;2.70;2.50;;;37.10;38.10;;;;;;5077422;28;20464;-41
2022/08/05 10:01:35;;;;;;;3.50;2.70;;;37.20;36.20;;;;;;5076759;28;20415;-44
2022/08/05 10:04:12;;;;;;;2.67;2.47;;;37.30;36.70;;;;;;5076246;28;20423;-44
2022/08/05 10:06:55;;;;;;;3.03;2.83;;;37.70;36.30;;;;;;5077319;28;20394;-42
2022/08/05 10:09:21;;;;;;;2.93;2.50;;;38.00;35.50;;;;;;5077895;28;20410;-42
2022/08/05 10:11:47;;;;;;;2.63;2.33;;;38.10;35.20;;;;;;5075602;28;20886;-42
2022/08/05 10:14:23;;;;;;;2.90;2.70;;;38.20;35.40;;;;;;5077233;28;20424;-46
2022/08/05 10:16:50;;;;;;;3.17;2.90;;;38.30;35.10;;;;;;5077067;28;20409;-43
2022/08/05 10:19:16;;;;;;;3.13;2.80;;;38.60;35.60;;;;;;5077942;28;20498;-42
2022/08/05 10:21:41;;;;;;;2.80;2.60;;;38.90;35.30;;;;;;5078030;28;20415;-44
2022/08/05 10:24:11;;;;;;;4.80;2.80;;;39.10;34.20;;;;;;5077204;28;20890;-45
2022/08/05 10:26:39;;;;;;;3.50;2.87;;;39.20;34.50;;;;;;5078240;28;20609;-42
2022/08/05 10:29:06;;;;;;;3.00;2.70;;;39.40;33.90;;;;;;5076858;28;20946;-45
2022/08/05 10:31:32;;;;;;;3.23;3.03;;;39.40;33.80;;;;;;5079890;28;20470;-45
2022/08/05 10:33:58;;;;;;;2.63;2.43;;;39.60;33.90;;;;;;5076509;28;20561;-44
2022/08/05 10:36:24;;;;;;;3.77;3.47;;;39.90;34.20;;;;;;5077290;28;20423;-44
2022/08/05 10:38:53;;;;;;;3.20;2.97;;;40.20;33.50;;;;;;5074831;28;20176;-46
2022/08/05 10:41:30;;;;;;;3.37;3.17;;;40.40;33.50;;;;;;5075086;28;20181;-44
2022/08/05 10:44:00;;;;;;;3.10;2.70;;;40.50;32.90;;;;;;5077473;28;20515;-43
2022/08/05 10:46:49;;;;;;;3.07;2.83;;;40.60;32.80;;;;;;5074322;28;20403;-43
2022/08/05 10:49:15;;;;;;;3.20;2.90;;;40.70;31.30;;;;;;5074042;28;20443;-45
2022/08/05 10:51:49;;;;;;;3.57;2.90;;;40.60;32.00;;;;;;5075081;28;20464;-42
2022/08/05 10:54:15;;;;;;;2.90;2.70;;;40.70;31.50;;;;;;5073708;28;20420;-45
2022/08/05 10:56:54;;;;;;;3.17;2.87;;;40.70;31.70;;;;;;5076398;28;20423;-43
2022/08/05 10:59:30;;;;;;;3.40;3.10;;;40.60;31.30;;;;;;5073887;28;20504;-45
2022/08/05 11:02:10;;;;;;;3.77;2.90;;;40.50;31.70;;;;;;5075928;28;20419;-43
2022/08/05 11:04:46;;;;;;;3.00;2.80;;;40.50;31.70;;;;;;5076548;28;20431;-43
2022/08/05 11:07:15;;;;;;;3.47;3.17;;;40.10;31.40;;;;;;5077714;28;20893;-45
2022/08/05 11:09:51;;;;;;;3.20;3.00;;;39.80;32.20;;;;;;5076648;28;20835;-44
2022/08/05 11:12:25;;;;;;;3.27;3.00;;;40.10;32.10;;;;;;5078506;28;20514;-44
2022/08/05 11:15:15;;;;;;;3.43;3.13;;;40.40;31.40;;;;;;5077957;28;20466;-45
2022/08/05 11:17:42;;;;;;;3.20;2.90;;;40.60;30.90;;;;;;5076127;28;20412;-43
2022/08/05 11:20:38;;;;;;;3.47;3.10;;;40.70;31.20;;;;;;5077498;28;20444;-43
2022/08/05 11:23:26;;;;;;;3.40;3.00;;;40.90;30.50;;;;;;5076330;28;20416;-42
2022/08/05 11:26:01;;;;;;;2.83;2.63;;;40.30;30.50;;;;;;5076341;28;20424;-42
2022/08/05 11:28:27;;;;;;;3.10;2.90;;;40.20;30.70;;;;;;5076260;28;20408;-42
2022/08/05 11:31:01;;;;;;;2.97;2.77;;;40.50;31.00;;;;;;5075267;28;20513;-44
2022/08/05 11:33:29;;;;;;;3.20;3.00;;;40.70;30.50;;;;;;5072850;28;20432;-44
2022/08/05 11:36:00;;;;;;;7.23;2.73;;;40.70;30.80;;;;;;5072373;28;20980;-45
2022/08/05 11:38:38;;;;;;;3.00;2.80;;;40.90;31.20;;;;;;5073672;28;20412;-43
2022/08/05 11:41:05;;;;;;;3.07;2.80;;;41.40;30.40;;;;;;5075968;28;20451;-43
2022/08/05 11:43:31;;;;;;;3.53;3.23;;;41.80;30.60;;;;;;5076756;28;20710;-43
2022/08/05 11:45:58;;;;;;;3.50;3.27;;;42.10;29.80;;;;;;5074767;28;20482;-44
2022/08/05 11:48:24;;;;;;;3.37;3.07;;;41.80;29.80;;;;;;5074592;28;20700;-45
2022/08/05 11:50:51;;;;;;;3.30;2.93;;;41.70;29.80;;;;;;5076118;28;20490;-44
2022/08/05 11:53:18;;;;;;;3.03;2.80;;;41.20;30.20;;;;;;5075905;28;20427;-45
2022/08/05 11:55:57;;;;;;;3.23;3.03;;;41.20;30.00;;;;;;5075628;28;20493;-43
2022/08/05 11:58:40;;;;;;;3.20;3.00;;;41.60;31.40;;;;;;5076491;28;20419;-43
2022/08/05 12:01:14;;;;;;;3.33;2.80;;;42.20;31.50;;;;;;5077835;28;20431;-43
2022/08/05 12:03:50;;;;;;;3.13;2.93;;;42.80;30.80;;;;;;5076804;28;20434;-44
2022/08/05 12:06:18;;;;;;;3.33;3.03;;;43.10;29.50;;;;;;5076210;28;20507;-43
2022/08/05 12:08:52;;;;;;;3.40;3.00;;;42.40;29.70;;;;;;5076076;28;20508;-42
2022/08/05 12:11:19;;;;;;;3.10;2.90;;;41.20;30.50;;;;;;5075327;28;20463;-44
2022/08/05 12:14:05;;;;;;;4.13;3.40;;;40.10;31.30;;;;;;5075396;28;20423;-42
2022/08/05 12:16:35;;;;;;;3.37;3.17;;;39.30;31.80;;;;;;5074517;28;20478;-43
2022/08/05 12:19:02;;;;;;;3.30;3.07;;;39.00;32.50;;;;;;5073922;28;20505;-44
2022/08/05 12:21:31;;;;;;;4.77;3.77;;;39.20;31.80;;;;;;5074063;28;20411;-43
2022/08/05 12:23:59;;;;;;;3.27;3.07;;;38.90;31.40;;;;;;5076083;28;20452;-42
2022/08/05 12:26:31;;;;;;;3.23;3.03;;;38.50;32.30;;;;;;5076578;28;20412;-44
2022/08/05 12:28:57;;;;;;;4.60;3.70;;;38.20;33.00;;;;;;5074849;28;20448;-44
2022/08/05 12:31:23;;;;;;;4.27;3.87;;;37.80;33.10;;;;;;5075744;28;20721;-43
2022/08/05 12:33:49;;;;;;;3.57;3.10;;;38.10;33.40;;;;;;5059176;28;20435;-45
2022/08/05 12:36:15;;;;;;;3.90;3.50;;;38.70;33.00;;;;;;5074362;28;20221;-43
2022/08/05 12:38:41;;;;;;;3.37;3.13;;;38.80;32.70;;;;;;5075939;28;20803;-44
2022/08/05 12:41:11;;;;;;;4.20;3.90;;;38.30;33.00;;;;;;5076148;28;20409;-43
2022/08/05 12:43:55;;;;;;;3.93;3.63;;;37.90;33.00;;;;;;5075745;28;20194;-44
2022/08/05 12:46:28;;;;;;;3.90;3.60;;;37.80;33.00;;;;;;5073005;28;20739;-45
2022/08/05 12:49:09;;;;;;;4.10;3.80;;;37.90;33.50;;;;;;5077553;28;20452;-44
2022/08/05 12:51:48;;;;;;;3.90;3.50;;;38.30;33.60;;;;;;5078294;28;20522;-45
2022/08/05 12:54:25;;;;;;;4.13;3.70;;;38.20;33.10;;;;;;5077175;28;20909;-44
2022/08/05 12:57:11;;;;;;;3.87;3.57;;;37.90;33.50;;;;;;5077621;28;20670;-44
2022/08/05 12:59:50;;;;;;;3.80;3.47;;;37.60;33.70;;;;;;5076254;28;20435;-43
2022/08/05 13:02:23;;;;;;;4.13;3.80;;;37.30;33.90;;;;;;5077567;28;20418;-43